createdAt,value
2023-01-17T00:01:11.690Z,97108.09
2023-01-17T00:03:58.267Z,97090.75
2023-01-17T00:06:43.955Z,97087.34
2023-01-17T00:09:30.099Z,97097.75
2023-01-17T00:11:57.526Z,97094.34
2023-01-17T00:14:24.133Z,97098.72
2023-01-17T00:16:50.627Z,97102.25
2023-01-17T00:19:35.465Z,97103.94
2023-01-17T00:22:20.596Z,97105.66
2023-01-17T00:25:05.867Z,97108.34
2023-01-17T00:27:32.341Z,97111.91
2023-01-17T00:29:58.859Z,97107.50
2023-01-17T00:32:25.311Z,97103.19
2023-01-17T00:34:51.774Z,97093.69
2023-01-17T00:37:18.301Z,97098.06
2023-01-17T00:39:44.748Z,97092.84
2023-01-17T00:42:11.201Z,97093.75
2023-01-17T00:44:56.157Z,97096.31
2023-01-17T00:47:41.372Z,97098.94
2023-01-17T00:50:26.711Z,97092.91
2023-01-17T00:53:11.715Z,97097.19
2023-01-17T00:55:56.656Z,97087.69
2023-01-17T00:58:41.813Z,97088.59
2023-01-17T01:01:27.066Z,97089.47
2023-01-17T01:04:12.313Z,97089.47
2023-01-17T01:06:57.565Z,97090.34
2023-01-17T01:09:42.321Z,97094.69
2023-01-17T01:12:27.449Z,97099.03
2023-01-17T01:15:12.450Z,97093.88
2023-01-17T01:17:57.357Z,97095.63
2023-01-17T01:20:42.608Z,97096.53
2023-01-17T01:23:27.601Z,97098.25
2023-01-17T01:26:12.891Z,97094.84
2023-01-17T01:28:57.720Z,97090.56
2023-01-17T01:31:42.977Z,97100.03
2023-01-17T01:34:09.581Z,97093.88
2023-01-17T01:36:36.169Z,97093.88
2023-01-17T01:39:02.741Z,97100.81
2023-01-17T01:41:29.256Z,97090.28
2023-01-17T01:43:56.116Z,97097.97
2023-01-17T01:46:30.263Z,97101.41
2023-01-17T01:49:01.725Z,97095.34
2023-01-17T01:51:42.363Z,97086.69
2023-01-17T01:54:19.420Z,97085.88
2023-01-17T01:56:48.654Z,97083.34
2023-01-17T01:59:18.049Z,97078.19
2023-01-17T02:01:44.851Z,97073.06
2023-01-17T02:04:12.827Z,97073.88
2023-01-17T02:06:48.015Z,97072.09
2023-01-17T02:09:17.303Z,97075.56
2023-01-17T02:11:46.032Z,97071.22
2023-01-17T02:14:17.505Z,97066.06
2023-01-17T02:16:50.308Z,97059.06
2023-01-17T02:19:34.849Z,97066.69
2023-01-17T02:22:41.856Z,97064.03
2023-01-17T02:25:37.638Z,97067.28
2023-01-17T02:28:27.187Z,97068.00
2023-01-17T02:31:04.490Z,97067.91
2023-01-17T02:33:48.953Z,97065.13
2023-01-17T02:36:26.001Z,97057.34
2023-01-17T02:39:04.816Z,97060.66
2023-01-17T02:41:36.906Z,97067.59
2023-01-17T02:44:03.912Z,97043.41
2023-01-17T02:46:30.990Z,97038.31
2023-01-17T02:48:57.917Z,97038.22
2023-01-17T02:51:33.427Z,97049.47
2023-01-17T02:54:18.535Z,97052.09
2023-01-17T02:57:01.284Z,97026.19
2023-01-17T02:59:49.071Z,97029.63
2023-01-17T03:02:33.949Z,97035.63
2023-01-17T03:05:06.651Z,97033.13
2023-01-17T03:07:34.336Z,97044.38
2023-01-17T03:10:05.547Z,97052.13
2023-01-17T03:12:34.526Z,97041.72
2023-01-17T03:15:01.194Z,97039.13
2023-01-17T03:17:32.561Z,97059.94
2023-01-17T03:19:59.172Z,97064.38
2023-01-17T03:22:25.729Z,97072.25
2023-01-17T03:24:52.261Z,97083.59
2023-01-17T03:27:18.769Z,97078.41
2023-01-17T03:29:45.268Z,97075.78
2023-01-17T03:32:11.818Z,97085.09
2023-01-17T03:34:38.351Z,97078.78
2023-01-17T03:37:04.860Z,97077.84
2023-01-17T03:39:31.361Z,97082.09
2023-01-17T03:41:57.892Z,97077.72
2023-01-17T03:44:24.405Z,97077.66
2023-01-17T03:46:50.921Z,97083.72
2023-01-17T03:49:17.486Z,97087.28
2023-01-17T03:51:44.080Z,97085.56
2023-01-17T03:54:10.622Z,97095.94
2023-01-17T03:56:37.117Z,97084.72
2023-01-17T03:59:03.715Z,97090.81
2023-01-17T04:01:30.337Z,97079.59
2023-01-17T04:03:56.953Z,97068.41
2023-01-17T04:06:23.609Z,97071.91
2023-01-17T04:08:50.124Z,97081.44
2023-01-17T04:11:16.651Z,97091.81
2023-01-17T04:13:43.130Z,97094.44
2023-01-17T04:16:14.983Z,97103.16
2023-01-17T04:18:41.684Z,97101.44
2023-01-17T04:21:08.332Z,97099.75
2023-01-17T04:23:35.087Z,97100.63
2023-01-17T04:26:03.679Z,97101.50
2023-01-17T04:28:30.346Z,97104.25
2023-01-17T04:31:00.626Z,97105.25
2023-01-17T04:33:27.241Z,97099.31
2023-01-17T04:35:54.391Z,97106.31
2023-01-17T04:38:21.736Z,97105.59
2023-01-17T04:40:48.799Z,97107.41
2023-01-17T04:43:16.258Z,97103.06
2023-01-17T04:45:43.347Z,97103.19
2023-01-17T04:48:12.697Z,97097.09
2023-01-17T04:50:39.928Z,97105.66
2023-01-17T04:53:06.479Z,97099.66
2023-01-17T04:55:33.031Z,97106.63
2023-01-17T04:57:59.583Z,97101.47
2023-01-17T05:00:26.107Z,97104.00
2023-01-17T05:02:52.631Z,97103.22
2023-01-17T05:05:19.156Z,97105.84
2023-01-17T05:07:53.593Z,97107.63
2023-01-17T05:10:20.257Z,97108.47
2023-01-17T05:12:57.049Z,97101.53
2023-01-17T05:15:24.433Z,97094.63
2023-01-17T05:17:52.580Z,97083.41
2023-01-17T05:20:20.762Z,97082.50
2023-01-17T05:22:56.178Z,97092.84
2023-01-17T05:25:24.354Z,97094.66
2023-01-17T05:27:51.415Z,97091.97
2023-01-17T05:30:18.955Z,97089.31
2023-01-17T05:32:51.923Z,97094.47
2023-01-17T05:35:20.529Z,97089.22
2023-01-17T05:37:49.317Z,97094.28
2023-01-17T05:40:20.448Z,97102.88
2023-01-17T05:42:51.606Z,97098.50
2023-01-17T05:45:20.038Z,97099.44
2023-01-17T05:47:48.171Z,97102.03
2023-01-17T05:50:18.478Z,97099.44
2023-01-17T05:52:59.736Z,97091.53
2023-01-17T05:55:28.227Z,97093.25
2023-01-17T05:57:55.414Z,97101.94
2023-01-17T06:00:22.917Z,97124.53
2023-01-17T06:02:50.010Z,97115.94
2023-01-17T06:05:17.201Z,97128.97
2023-01-17T06:07:45.571Z,97123.84
2023-01-17T06:10:16.096Z,97128.28
2023-01-17T06:12:43.966Z,97130.84
2023-01-17T06:15:11.879Z,97119.69
2023-01-17T06:17:38.467Z,97134.41
2023-01-17T06:20:06.781Z,97137.88
2023-01-17T06:22:33.490Z,97145.69
2023-01-17T06:25:00.166Z,97151.78
2023-01-17T06:27:27.188Z,97151.81
2023-01-17T06:29:53.711Z,97154.38
2023-01-17T06:32:20.511Z,97155.06
2023-01-17T06:34:47.003Z,97157.59
2023-01-17T06:37:13.510Z,97157.63
2023-01-17T06:39:39.955Z,97159.31
2023-01-17T06:42:06.528Z,97162.75
2023-01-17T06:44:33.075Z,97165.34
2023-01-17T06:46:59.645Z,97170.50
2023-01-17T06:49:26.191Z,97165.91
2023-01-17T06:51:52.733Z,97173.50
2023-01-17T06:54:19.605Z,97170.66
2023-01-17T06:56:46.160Z,97176.53
2023-01-17T06:59:12.644Z,97186.69
2023-01-17T07:01:40.343Z,97181.38
2023-01-17T07:04:07.197Z,97183.06
2023-01-17T07:06:36.071Z,97182.94
2023-01-17T07:09:04.284Z,97186.47
2023-01-17T07:11:31.401Z,97191.50
2023-01-17T07:13:57.946Z,97204.50
2023-01-17T07:16:24.502Z,97198.44
2023-01-17T07:18:51.896Z,97200.13
2023-01-17T07:21:18.711Z,97203.41
2023-01-17T07:23:45.307Z,97200.69
2023-01-17T07:26:11.831Z,97200.69
2023-01-17T07:28:38.325Z,97199.75
2023-01-17T07:31:08.362Z,97199.69
2023-01-17T07:33:35.419Z,97199.56
2023-01-17T07:36:07.536Z,97207.31
2023-01-17T07:38:34.856Z,97208.19
2023-01-17T07:41:01.888Z,97219.41
2023-01-17T07:43:28.567Z,97219.28
2023-01-17T07:45:55.391Z,97210.53
2023-01-17T07:48:24.099Z,97219.97
2023-01-17T07:50:55.997Z,97225.88
2023-01-17T07:53:28.424Z,97227.50
2023-01-17T07:55:55.539Z,97231.75
2023-01-17T07:58:22.374Z,97238.63
2023-01-17T08:00:48.950Z,97236.78
2023-01-17T08:03:17.873Z,97238.44
2023-01-17T08:05:53.720Z,97240.88
2023-01-17T08:08:20.266Z,97248.72
2023-01-17T08:10:47.200Z,97245.13
2023-01-17T08:13:13.726Z,97249.31
2023-01-17T08:15:40.245Z,97255.22
2023-01-17T08:18:06.757Z,97261.19
2023-01-17T08:20:33.298Z,97268.84
2023-01-17T08:22:59.889Z,97260.19
2023-01-17T08:25:26.902Z,97263.19
2023-01-17T08:27:57.633Z,97261.22
2023-01-17T08:30:24.855Z,97261.66
2023-01-17T08:32:51.454Z,97261.25
2023-01-17T08:35:19.956Z,97272.69
2023-01-17T08:37:47.479Z,97282.34
2023-01-17T08:40:19.610Z,97280.59
2023-01-17T08:42:54.879Z,97281.56
2023-01-17T08:45:21.422Z,97274.22
2023-01-17T08:47:48.005Z,97278.59
2023-01-17T08:50:14.596Z,97285.22
2023-01-17T08:52:41.150Z,97282.59
2023-01-17T08:55:10.241Z,97282.31
2023-01-17T08:57:36.796Z,97293.06
2023-01-17T09:00:04.059Z,97280.22
2023-01-17T09:02:30.598Z,97286.38
2023-01-17T09:04:57.088Z,97284.63
2023-01-17T09:07:24.475Z,97296.81
2023-01-17T09:09:52.766Z,97295.88
2023-01-17T09:12:20.305Z,97306.25
2023-01-17T09:14:46.846Z,97306.69
2023-01-17T09:17:14.615Z,97305.69
2023-01-17T09:19:47.516Z,97304.69
2023-01-17T09:22:14.331Z,97314.28
2023-01-17T09:24:41.441Z,97318.34
2023-01-17T09:27:07.986Z,97320.91
2023-01-17T09:29:34.553Z,97315.84
2023-01-17T09:32:01.875Z,97313.19
2023-01-17T09:34:28.579Z,97312.09
2023-01-17T09:36:56.972Z,97303.13
2023-01-17T09:39:23.617Z,97308.31
2023-01-17T09:42:34.975Z,97310.03
2023-01-17T09:45:02.181Z,97300.44
2023-01-17T09:47:36.125Z,97315.88
2023-01-17T09:50:38.085Z,97299.34
2023-01-17T09:53:14.034Z,97310.63
2023-01-17T09:55:49.228Z,97313.91
2023-01-17T09:58:21.681Z,97312.09
2023-01-17T10:01:12.463Z,97317.06
2023-01-17T10:03:44.955Z,97307.25
2023-01-17T10:06:49.396Z,97314.19
2023-01-17T10:09:37.672Z,97311.34
2023-01-17T10:12:46.789Z,97312.53
2023-01-17T10:15:34.761Z,97312.81
2023-01-17T10:18:07.569Z,97306.50
2023-01-17T10:21:12.472Z,97316.88
2023-01-17T10:24:03.988Z,97314.56
2023-01-17T10:26:32.623Z,97311.91
2023-01-17T10:29:04.314Z,97323.06
2023-01-17T10:31:55.800Z,97323.84
2023-01-17T10:34:28.383Z,97327.19
2023-01-17T10:37:16.939Z,97328.63
2023-01-17T10:39:46.561Z,97328.47
2023-01-17T10:42:23.283Z,97338.59
2023-01-17T10:44:59.217Z,97346.66
2023-01-17T10:47:29.297Z,97327.88
2023-01-17T10:49:59.532Z,97337.09
2023-01-17T10:52:54.014Z,97330.69
2023-01-17T10:55:40.337Z,97343.13
2023-01-17T10:58:12.592Z,97336.81
2023-01-17T11:00:50.061Z,97339.03
2023-01-17T11:03:20.878Z,97350.91
2023-01-17T11:06:27.609Z,97349.81
2023-01-17T11:08:55.653Z,97347.34
2023-01-17T11:11:33.625Z,97340.22
2023-01-17T11:14:16.206Z,97339.13
2023-01-17T11:16:43.486Z,97344.31
2023-01-17T11:19:21.414Z,97346.34
2023-01-17T11:21:54.671Z,97334.91
2023-01-17T11:24:29.920Z,97333.31
2023-01-17T11:26:58.037Z,97333.34
2023-01-17T11:29:27.482Z,97335.38
2023-01-17T11:31:56.278Z,97337.41
2023-01-17T11:34:29.524Z,97335.50
2023-01-17T11:37:14.827Z,97330.25
2023-01-17T11:39:42.991Z,97327.97
2023-01-17T11:42:33.686Z,97321.94
2023-01-17T11:45:23.803Z,97324.09
2023-01-17T11:48:12.826Z,97328.78
2023-01-17T11:50:45.413Z,97330.00
2023-01-17T11:53:25.913Z,97337.00
2023-01-17T11:56:08.983Z,97329.84
2023-01-17T11:58:41.541Z,97325.72
2023-01-17T12:01:41.474Z,97344.66
2023-01-17T12:04:24.945Z,97338.00
2023-01-17T12:07:07.870Z,97333.47
2023-01-17T12:09:44.904Z,97321.16
2023-01-17T12:12:54.622Z,97325.69
2023-01-17T12:15:40.309Z,97323.97
2023-01-17T12:18:22.028Z,97326.41
2023-01-17T12:21:14.597Z,97317.91
2023-01-17T12:23:57.955Z,97316.47
2023-01-17T12:26:45.498Z,97314.00
2023-01-17T12:29:30.104Z,97304.09
2023-01-17T12:31:56.542Z,97313.72
2023-01-17T12:34:40.327Z,97305.81
2023-01-17T12:37:24.711Z,97309.56
2023-01-17T12:39:57.944Z,97314.56
2023-01-17T12:42:31.746Z,97319.44
2023-01-17T12:45:15.141Z,97324.31
2023-01-17T12:47:46.853Z,97324.25
2023-01-17T12:50:26.994Z,97319.69
2023-01-17T12:53:03.055Z,97316.84
2023-01-17T12:56:06.059Z,97314.22
2023-01-17T12:58:49.037Z,97309.31
2023-01-17T13:01:31.866Z,97325.44
2023-01-17T13:04:19.429Z,97319.75
2023-01-17T13:06:56.610Z,97315.63
2023-01-17T13:09:23.883Z,97326.06
2023-01-17T13:12:14.211Z,97332.72
2023-01-17T13:14:40.915Z,97328.94
2023-01-17T13:17:39.043Z,97331.50
2023-01-17T13:20:32.020Z,97338.59
2023-01-17T13:23:12.429Z,97343.81
2023-01-17T13:25:48.926Z,97357.13
2023-01-17T13:28:39.788Z,97360.44
2023-01-17T13:31:41.930Z,97371.41
2023-01-17T13:34:38.315Z,97383.88
2023-01-17T13:37:34.298Z,97380.84
2023-01-17T13:40:26.045Z,97399.13
2023-01-17T13:43:05.423Z,97404.09
2023-01-17T13:45:37.849Z,97409.22
2023-01-17T13:48:28.640Z,97424.03
2023-01-17T13:51:00.611Z,97418.78
2023-01-17T13:53:36.889Z,97418.72
2023-01-17T13:56:14.206Z,97428.75
2023-01-17T13:58:50.526Z,97417.66
2023-01-17T14:01:23.349Z,97416.16
2023-01-17T14:03:52.702Z,97421.84
2023-01-17T14:06:46.113Z,97430.09
2023-01-17T14:09:12.613Z,97430.19
2023-01-17T14:12:01.664Z,97442.56
2023-01-17T14:14:40.318Z,97443.56
2023-01-17T14:17:16.005Z,97460.22
2023-01-17T14:19:46.343Z,97462.00
2023-01-17T14:22:18.804Z,97469.09
2023-01-17T14:25:10.145Z,97477.13
2023-01-17T14:27:48.332Z,97489.44
2023-01-17T14:30:38.155Z,97503.31
2023-01-17T14:33:19.366Z,97503.38
2023-01-17T14:35:56.102Z,97513.06
2023-01-17T14:38:25.296Z,97522.69
2023-01-17T14:41:13.167Z,97531.53
2023-01-17T14:43:42.452Z,97536.00
2023-01-17T14:46:18.818Z,97529.19
2023-01-17T14:48:46.203Z,97541.41
2023-01-17T14:51:14.956Z,97535.50
2023-01-17T14:53:53.387Z,97524.41
2023-01-17T14:56:20.078Z,97534.13
2023-01-17T14:58:46.771Z,97538.59
2023-01-17T15:01:15.574Z,97540.50
2023-01-17T15:03:47.083Z,97531.97
2023-01-17T15:06:40.463Z,97537.38
2023-01-17T15:09:18.163Z,97541.09
2023-01-17T15:11:47.821Z,97544.69
2023-01-17T15:14:28.316Z,97543.81
2023-01-17T15:16:55.059Z,97542.28
2023-01-17T15:19:22.452Z,97544.16
2023-01-17T15:21:52.071Z,97545.94
2023-01-17T15:24:34.533Z,97537.41
2023-01-17T15:27:01.928Z,97543.56
2023-01-17T15:29:32.263Z,97535.88
2023-01-17T15:32:01.352Z,97528.09
2023-01-17T15:34:31.128Z,97527.34
2023-01-17T15:37:01.460Z,97526.66
2023-01-17T15:39:31.907Z,97539.00
2023-01-17T15:42:01.805Z,97533.88
2023-01-17T15:44:46.421Z,97532.25
2023-01-17T15:47:34.078Z,97534.22
2023-01-17T15:50:18.726Z,97531.63
2023-01-17T15:52:49.993Z,97528.28
2023-01-17T15:55:26.133Z,97523.16
2023-01-17T15:57:52.603Z,97530.19
2023-01-17T16:00:24.156Z,97525.06
2023-01-17T16:02:55.539Z,97532.00
2023-01-17T16:05:22.622Z,97522.53
2023-01-17T16:07:51.098Z,97528.66
2023-01-17T16:10:28.897Z,97527.84
2023-01-17T16:12:56.357Z,97518.31
2023-01-17T16:15:23.792Z,97519.13
2023-01-17T16:17:53.571Z,97509.59
2023-01-17T16:20:25.415Z,97517.47
2023-01-17T16:22:52.588Z,97502.75
2023-01-17T16:25:22.224Z,97500.13
2023-01-17T16:27:49.976Z,97503.56
2023-01-17T16:30:19.905Z,97491.41
2023-01-17T16:32:51.229Z,97493.97
2023-01-17T16:35:25.700Z,97480.13
2023-01-17T16:37:58.506Z,97485.31
2023-01-17T16:40:28.301Z,97495.84
2023-01-17T16:42:59.098Z,97495.16
2023-01-17T16:45:26.441Z,97507.41
2023-01-17T16:47:54.499Z,97504.88
2023-01-17T16:50:24.206Z,97508.41
2023-01-17T16:52:52.425Z,97498.91
2023-01-17T16:55:24.371Z,97491.19
2023-01-17T16:57:52.548Z,97487.78
2023-01-17T17:00:20.014Z,97486.91
2023-01-17T17:02:50.903Z,97490.47
2023-01-17T17:05:17.659Z,97496.66
2023-01-17T17:07:45.629Z,97495.81
2023-01-17T17:10:14.962Z,97494.13
2023-01-17T17:12:41.649Z,97505.41
2023-01-17T17:15:09.635Z,97500.22
2023-01-17T17:17:37.641Z,97507.16
2023-01-17T17:20:05.326Z,97509.88
2023-01-17T17:22:32.551Z,97515.22
2023-01-17T17:24:59.306Z,97517.09
2023-01-17T17:27:27.897Z,97512.06
2023-01-17T17:29:55.091Z,97511.31
2023-01-17T17:32:21.899Z,97501.03
2023-01-17T17:34:50.862Z,97505.41
2023-01-17T17:37:17.940Z,97509.78
2023-01-17T17:39:45.386Z,97505.50
2023-01-17T17:42:12.645Z,97508.97
2023-01-17T17:44:39.227Z,97502.97
2023-01-17T17:47:05.801Z,97510.81
2023-01-17T17:49:32.386Z,97502.22
2023-01-17T17:52:09.060Z,97512.59
2023-01-17T17:54:36.925Z,97523.91
2023-01-17T17:57:03.707Z,97529.97
2023-01-17T17:59:31.254Z,97534.34
2023-01-17T18:02:00.536Z,97539.56
2023-01-17T18:04:27.287Z,97531.78
2023-01-17T18:06:57.840Z,97536.94
2023-01-17T18:09:24.373Z,97542.03
2023-01-17T18:11:51.021Z,97542.00
2023-01-17T18:14:20.949Z,97543.69
2023-01-17T18:16:48.036Z,97548.06
2023-01-17T18:19:18.337Z,97555.00
2023-01-17T18:21:45.133Z,97552.47
2023-01-17T18:24:16.794Z,97555.94
2023-01-17T18:26:48.605Z,97551.63
2023-01-17T18:29:16.561Z,97562.00
2023-01-17T18:31:45.050Z,97561.13
2023-01-17T18:34:14.502Z,97566.31
2023-01-17T18:36:44.463Z,97560.28
2023-01-17T18:39:16.261Z,97564.53
2023-01-17T18:41:43.364Z,97566.28
2023-01-17T18:44:10.434Z,97573.19
2023-01-17T18:46:37.618Z,97573.16
2023-01-17T18:49:05.084Z,97560.19
2023-01-17T18:51:33.479Z,97568.00
2023-01-17T18:54:05.324Z,97585.28
2023-01-17T18:56:36.664Z,97595.66
2023-01-17T18:59:05.901Z,97601.69
2023-01-17T19:01:35.910Z,97591.28
2023-01-17T19:04:06.097Z,97584.34
2023-01-17T19:06:36.080Z,97575.75
2023-01-17T19:09:03.959Z,97572.28
2023-01-17T19:11:30.764Z,97571.44
2023-01-17T19:13:57.508Z,97588.72
2023-01-17T19:16:28.150Z,97598.19
2023-01-17T19:18:56.985Z,97608.53
2023-01-17T19:21:26.186Z,97612.84
2023-01-17T19:23:53.931Z,97605.03
2023-01-17T19:26:22.912Z,97596.34
2023-01-17T19:28:50.347Z,97574.00
2023-01-17T19:31:22.332Z,97565.34
2023-01-17T19:33:51.151Z,97564.50
2023-01-17T19:36:24.018Z,97580.03
2023-01-17T19:39:03.462Z,97588.66
2023-01-17T19:41:31.382Z,97595.53
2023-01-17T19:44:00.280Z,97581.69
2023-01-17T19:46:27.701Z,97577.31
2023-01-17T19:48:56.182Z,97580.78
2023-01-17T19:51:23.841Z,97594.56
2023-01-17T19:53:50.786Z,97587.63
2023-01-17T19:56:19.773Z,97573.84
2023-01-17T19:58:48.022Z,97573.00
2023-01-17T20:01:17.572Z,97566.91
2023-01-17T20:03:45.735Z,97554.84
2023-01-17T20:06:16.278Z,97563.47
2023-01-17T20:08:43.628Z,97560.06
2023-01-17T20:11:16.176Z,97569.56
2023-01-17T20:13:42.894Z,97572.13
2023-01-17T20:16:12.167Z,97573.75
2023-01-17T20:18:38.745Z,97574.56
2023-01-17T20:21:10.310Z,97579.78
2023-01-17T20:23:38.918Z,97581.47
2023-01-17T20:26:06.662Z,97572.00
2023-01-17T20:28:35.110Z,97584.97
2023-01-17T20:31:13.492Z,97589.25
2023-01-17T20:33:41.876Z,97592.63
2023-01-17T20:36:11.459Z,97587.50
2023-01-17T20:38:45.311Z,97584.09
2023-01-17T20:41:19.206Z,97581.41
2023-01-17T20:43:48.436Z,97587.41
2023-01-17T20:46:15.866Z,97583.91
2023-01-17T20:48:47.539Z,97580.41
2023-01-17T20:51:15.094Z,97583.91
2023-01-17T20:53:43.987Z,97589.88
2023-01-17T20:56:12.307Z,97584.72
2023-01-17T20:58:40.781Z,97598.44
2023-01-17T21:01:09.988Z,97595.91
2023-01-17T21:03:38.355Z,97598.47
2023-01-17T21:06:08.087Z,97586.41
2023-01-17T21:08:37.109Z,97589.84
2023-01-17T21:11:04.897Z,97578.66
2023-01-17T21:13:33.013Z,97575.22
2023-01-17T21:16:00.388Z,97575.19
2023-01-17T21:18:29.516Z,97576.84
2023-01-17T21:21:07.689Z,97572.56
2023-01-17T21:23:35.958Z,97576.06
2023-01-17T21:26:03.075Z,97573.47
2023-01-17T21:28:33.856Z,97571.72
2023-01-17T21:31:00.998Z,97559.63
2023-01-17T21:33:29.517Z,97554.44
2023-01-17T21:36:07.809Z,97547.53
2023-01-17T21:38:34.340Z,97546.69
2023-01-17T21:41:00.921Z,97536.34
2023-01-17T21:43:27.387Z,97539.72
2023-01-17T21:45:54.620Z,97537.13
2023-01-17T21:48:21.308Z,97541.41
2023-01-17T21:50:47.848Z,97546.53
2023-01-17T21:53:14.355Z,97551.66
2023-01-17T21:55:59.627Z,97561.94
2023-01-17T21:58:44.321Z,97561.25
2023-01-17T22:01:18.440Z,97569.16
2023-01-17T22:03:57.532Z,97562.34
2023-01-17T22:06:32.115Z,97564.03
2023-01-17T22:08:59.323Z,97564.88
2023-01-17T22:11:27.641Z,97557.97
2023-01-17T22:13:54.446Z,97542.53
2023-01-17T22:16:24.195Z,97536.50
2023-01-17T22:18:51.251Z,97537.41
2023-01-17T22:21:23.683Z,97529.63
2023-01-17T22:23:52.946Z,97536.47
2023-01-17T22:26:21.321Z,97544.22
2023-01-17T22:28:48.204Z,97540.81
2023-01-17T22:31:24.862Z,97540.81
2023-01-17T22:33:57.122Z,97550.25
2023-01-17T22:36:24.430Z,97551.06
2023-01-17T22:38:51.560Z,97540.72
2023-01-17T22:41:21.645Z,97539.06
2023-01-17T22:43:50.241Z,97543.34
2023-01-17T22:46:19.932Z,97541.56
2023-01-17T22:48:47.049Z,97541.56
2023-01-17T22:51:15.959Z,97547.66
2023-01-17T22:53:48.031Z,97544.28
2023-01-17T22:56:17.083Z,97544.28
2023-01-17T22:58:48.804Z,97551.16
2023-01-17T23:01:19.422Z,97546.91
2023-01-17T23:03:52.210Z,97550.31
2023-01-17T23:06:25.682Z,97538.22
2023-01-17T23:08:54.596Z,97525.31
2023-01-17T23:11:41.296Z,97512.44
2023-01-17T23:14:13.782Z,97506.41
2023-01-17T23:17:03.046Z,97511.59
2023-01-17T23:19:33.061Z,97520.22
2023-01-17T23:22:16.497Z,97527.09
2023-01-17T23:25:04.029Z,97534.06
2023-01-17T23:28:01.183Z,97539.25
2023-01-17T23:30:29.181Z,97538.34
2023-01-17T23:32:58.372Z,97534.94
2023-01-17T23:35:27.609Z,97530.66
2023-01-17T23:38:13.383Z,97522.09
2023-01-17T23:40:40.655Z,97497.16
2023-01-17T23:43:24.986Z,97503.22
2023-01-17T23:45:53.713Z,97511.00
2023-01-17T23:48:21.984Z,97497.22
2023-01-17T23:50:48.794Z,97501.53
2023-01-17T23:53:23.447Z,97498.94
2023-01-17T23:55:52.358Z,97494.66
2023-01-17T23:58:21.021Z,97502.41
